createdAt,value
2019-05-29T00:01:20.379Z,101540.03
2019-05-29T00:03:47.607Z,101540.45
2019-05-29T00:06:16.298Z,101544.06
2019-05-29T00:08:45.036Z,101539.43
2019-05-29T00:11:14.325Z,101545.22
2019-05-29T00:13:44.156Z,101545.92
2019-05-29T00:16:12.843Z,101547.91
2019-05-29T00:18:41.557Z,101557.91
2019-05-29T00:21:11.662Z,101563.08
2019-05-29T00:23:40.774Z,101570.40
2019-05-29T00:26:10.415Z,101569.27
2019-05-29T00:28:40.121Z,101571.55
2019-05-29T00:31:09.891Z,101571.86
2019-05-29T00:33:39.107Z,101589.62
2019-05-29T00:36:08.222Z,101584.94
2019-05-29T00:38:38.917Z,101587.42
2019-05-29T00:41:08.770Z,101591.23
2019-05-29T00:43:38.141Z,101595.31
2019-05-29T00:46:07.319Z,101595.72
2019-05-29T00:48:36.184Z,101590.03
2019-05-29T00:51:05.222Z,101596.19
2019-05-29T00:53:33.930Z,101528.61
2019-05-29T00:56:02.773Z,101598.42
2019-05-29T00:58:31.602Z,101598.50
2019-05-29T01:01:00.288Z,101599.13
2019-05-29T01:03:29.398Z,101605.61
2019-05-29T01:05:58.081Z,101614.67
2019-05-29T01:08:26.792Z,101616.41
2019-05-29T01:10:55.516Z,101615.39
2019-05-29T01:13:24.217Z,101612.63
2019-05-29T01:15:52.946Z,101614.38
2019-05-29T01:18:22.335Z,101611.77
2019-05-29T01:20:51.488Z,101615.33
2019-05-29T01:23:20.416Z,101619.05
2019-05-29T01:25:49.123Z,101621.23
2019-05-29T01:28:18.934Z,101622.92
2019-05-29T01:30:51.338Z,101621.55
2019-05-29T01:33:20.503Z,101616.08
2019-05-29T01:35:49.093Z,101616.77
2019-05-29T01:38:17.785Z,101630.28
2019-05-29T01:40:46.519Z,101632.73
2019-05-29T01:43:15.367Z,101637.42
2019-05-29T01:45:44.268Z,101640.89
2019-05-29T01:48:13.036Z,101640.33
2019-05-29T01:50:42.555Z,101642.36
2019-05-29T01:53:11.314Z,101641.30
2019-05-29T01:55:40.043Z,101644.06
2019-05-29T01:58:08.744Z,101647.82
2019-05-29T02:00:37.479Z,101646.87
2019-05-29T02:03:06.219Z,101654.13
2019-05-29T02:05:34.920Z,101648.92
2019-05-29T02:08:03.615Z,101645.86
2019-05-29T02:10:32.257Z,101648.66
2019-05-29T02:13:00.989Z,101654.78
2019-05-29T02:15:33.493Z,101657.23
2019-05-29T02:18:01.067Z,101658.23
2019-05-29T02:20:29.792Z,101663.97
2019-05-29T02:22:58.498Z,101666.62
2019-05-29T02:25:27.226Z,101668.84
2019-05-29T02:27:55.944Z,101668.06
2019-05-29T02:30:27.794Z,101675.47
2019-05-29T02:32:55.351Z,101681.53
2019-05-29T02:35:24.861Z,101679.91
2019-05-29T02:37:55.016Z,101674.56
2019-05-29T02:40:25.821Z,101682.47
2019-05-29T02:42:54.262Z,101683.59
2019-05-29T02:45:26.158Z,101686.81
2019-05-29T02:47:53.885Z,101685.52
2019-05-29T02:50:23.923Z,101683.73
2019-05-29T02:52:52.892Z,101680.60
2019-05-29T02:55:22.601Z,101690.63
2019-05-29T02:57:51.927Z,101694.36
2019-05-29T03:00:25.562Z,101697.48
2019-05-29T03:02:54.087Z,101695.23
2019-05-29T03:05:23.858Z,101698.33
2019-05-29T03:07:53.039Z,101697.57
2019-05-29T03:10:22.570Z,101693.56
2019-05-29T03:12:52.076Z,101700.88
2019-05-29T03:15:20.797Z,101706.09
2019-05-29T03:17:49.633Z,101706.77
2019-05-29T03:20:18.355Z,101714.29
2019-05-29T03:22:47.141Z,101710.94
2019-05-29T03:25:15.857Z,101720.84
2019-05-29T03:27:44.554Z,101725.19
2019-05-29T03:30:13.453Z,101728.32
2019-05-29T03:32:47.706Z,101730.25
2019-05-29T03:35:12.585Z,101729.55
2019-05-29T03:37:41.423Z,101726.53
2019-05-29T03:40:10.130Z,101730.05
2019-05-29T03:42:39.250Z,101741.91
2019-05-29T03:45:09.442Z,101737.15
2019-05-29T03:47:38.231Z,101741.46
2019-05-29T03:50:08.593Z,101743.92
2019-05-29T03:52:38.984Z,101733.65
2019-05-29T03:55:07.768Z,101741.95
2019-05-29T03:57:38.194Z,101745.02
2019-05-29T04:00:09.815Z,101743.09
2019-05-29T04:02:39.121Z,101747.64
2019-05-29T04:05:09.448Z,101753.70
2019-05-29T04:07:38.549Z,101746.94
2019-05-29T04:10:09.045Z,101747.03
2019-05-29T04:12:38.291Z,101757.22
2019-05-29T04:15:09.454Z,101759.22
2019-05-29T04:17:40.060Z,101757.67
2019-05-29T04:20:09.708Z,101761.91
2019-05-29T04:22:41.321Z,101761.80
2019-05-29T04:25:10.133Z,101762.16
2019-05-29T04:27:41.797Z,101772.89
2019-05-29T04:30:10.634Z,101775.55
2019-05-29T04:32:39.339Z,101777.47
2019-05-29T04:35:08.481Z,101787.11
2019-05-29T04:37:39.473Z,101788.38
2019-05-29T04:40:08.772Z,101789.36
2019-05-29T04:42:39.717Z,101796.52
2019-05-29T04:45:10.822Z,101801.19
2019-05-29T04:47:39.895Z,101807.94
2019-05-29T04:50:10.216Z,101814.88
2019-05-29T04:52:40.298Z,101813.37
2019-05-29T04:55:09.682Z,101813.02
2019-05-29T04:57:39.229Z,101819.87
2019-05-29T05:00:09.948Z,101821.20
2019-05-29T05:02:39.447Z,101821.55
2019-05-29T05:05:09.808Z,101821.75
2019-05-29T05:07:39.665Z,101831.77
2019-05-29T05:10:10.194Z,101831.58
2019-05-29T05:12:42.640Z,101837.31
2019-05-29T05:15:11.644Z,101839.20
2019-05-29T05:17:40.399Z,101836.89
2019-05-29T05:20:09.175Z,101829.48
2019-05-29T05:22:38.224Z,101841.45
2019-05-29T05:25:07.454Z,101848.55
2019-05-29T05:27:36.524Z,101851.33
2019-05-29T05:30:09.017Z,101848.27
2019-05-29T05:32:41.102Z,101845.84
2019-05-29T05:35:13.999Z,101852.54
2019-05-29T05:37:41.071Z,101851.60
2019-05-29T05:40:11.325Z,101856.02
2019-05-29T05:42:41.247Z,101862.42
2019-05-29T05:45:11.219Z,101865.52
2019-05-29T05:47:54.095Z,101860.31
2019-05-29T05:50:10.463Z,101860.56
2019-05-29T05:52:39.529Z,101874.66
2019-05-29T05:55:08.530Z,101880.11
2019-05-29T05:57:37.724Z,101878.86
2019-05-29T06:00:10.420Z,101880.13
2019-05-29T06:02:40.131Z,101888.73
2019-05-29T06:05:10.368Z,101890.82
2019-05-29T06:07:40.266Z,101894.41
2019-05-29T06:10:09.469Z,101902.09
2019-05-29T06:12:38.701Z,101897.59
2019-05-29T06:15:08.458Z,101908.33
2019-05-29T06:17:38.589Z,101903.59
2019-05-29T06:20:10.568Z,101908.45
2019-05-29T06:22:39.394Z,101904.63
2019-05-29T06:25:09.529Z,101909.55
2019-05-29T06:27:39.175Z,101905.03
2019-05-29T06:30:09.546Z,101909.22
2019-05-29T06:32:39.454Z,101911.64
2019-05-29T06:35:09.007Z,101914.58
2019-05-29T06:37:37.765Z,101917.81
2019-05-29T06:40:08.701Z,101927.10
2019-05-29T06:42:37.864Z,101929.84
2019-05-29T06:45:09.161Z,101928.98
2019-05-29T06:47:40.437Z,101934.94
2019-05-29T06:50:09.269Z,101934.27
2019-05-29T06:52:39.119Z,101929.63
2019-05-29T06:55:08.592Z,101931.91
2019-05-29T06:57:38.088Z,101929.63
2019-05-29T07:00:08.911Z,101932.95
2019-05-29T07:02:38.486Z,101926.72
2019-05-29T07:05:08.158Z,101933.33
2019-05-29T07:07:38.088Z,101936.79
2019-05-29T07:10:07.787Z,101934.77
2019-05-29T07:12:36.581Z,101938.13
2019-05-29T07:15:08.379Z,101935.58
2019-05-29T07:17:38.416Z,101938.91
2019-05-29T07:20:07.824Z,101942.85
2019-05-29T07:22:37.074Z,101951.34
2019-05-29T07:25:07.668Z,101948.53
2019-05-29T07:27:36.844Z,101957.45
2019-05-29T07:30:11.033Z,101955.70
2019-05-29T07:32:40.993Z,101958.27
2019-05-29T07:35:10.377Z,101957.19
2019-05-29T07:37:39.717Z,101959.41
2019-05-29T07:40:12.004Z,101956.44
2019-05-29T07:42:45.357Z,101958.27
2019-05-29T07:45:12.711Z,101959.20
2019-05-29T07:47:42.686Z,101963.75
2019-05-29T07:50:12.796Z,101963.97
2019-05-29T07:52:43.038Z,101961.58
2019-05-29T07:55:13.911Z,101955.06
2019-05-29T07:57:42.902Z,101968.41
2019-05-29T08:00:11.738Z,101967.66
2019-05-29T08:02:41.351Z,101961.73
2019-05-29T08:05:11.865Z,101959.95
2019-05-29T08:07:41.402Z,101962.47
2019-05-29T08:10:13.046Z,101955.90
2019-05-29T08:12:46.815Z,101955.90
2019-05-29T08:15:13.993Z,101970.71
2019-05-29T08:17:43.958Z,101970.97
2019-05-29T08:20:14.283Z,101958.63
2019-05-29T08:22:44.291Z,101968.56
2019-05-29T08:25:16.634Z,101965.82
2019-05-29T08:27:46.592Z,101968.02
2019-05-29T08:30:15.680Z,101970.03
2019-05-29T08:32:45.323Z,101970.91
2019-05-29T08:35:14.274Z,101978.31
2019-05-29T08:37:43.013Z,101977.93
2019-05-29T08:40:11.938Z,101975.54
2019-05-29T08:42:41.095Z,101976.22
2019-05-29T08:45:12.085Z,101973.65
2019-05-29T08:47:41.470Z,101974.12
2019-05-29T08:50:19.424Z,101967.96
2019-05-29T08:52:41.856Z,101969.68
2019-05-29T08:55:13.852Z,101974.98
2019-05-29T08:57:44.113Z,101968.51
2019-05-29T09:00:14.455Z,101971.17
2019-05-29T09:02:44.574Z,101974.49
2019-05-29T09:05:13.667Z,101971.50
2019-05-29T09:07:43.393Z,101977.81
2019-05-29T09:10:14.365Z,101975.56
2019-05-29T09:12:49.471Z,101978.36
2019-05-29T09:15:13.929Z,101979.26
2019-05-29T09:17:43.987Z,101977.95
2019-05-29T09:20:29.224Z,101975.84
2019-05-29T09:22:43.435Z,101980.06
2019-05-29T09:25:13.683Z,101982.02
2019-05-29T09:27:42.740Z,101975.73
2019-05-29T09:30:11.719Z,101975.32
2019-05-29T09:32:50.032Z,101978.22
2019-05-29T09:35:10.952Z,101982.95
2019-05-29T09:37:39.735Z,101978.41
2019-05-29T09:40:15.379Z,101977.17
2019-05-29T09:42:44.536Z,101975.47
2019-05-29T09:45:13.416Z,101978.67
2019-05-29T09:47:42.267Z,101976.92
2019-05-29T09:50:12.641Z,101973.97
2019-05-29T09:52:41.431Z,101977.20
2019-05-29T09:55:10.355Z,101977.06
2019-05-29T09:57:39.118Z,101974.31
2019-05-29T10:00:12.749Z,101979.98
2019-05-29T10:02:41.504Z,101982.27
2019-05-29T10:05:10.449Z,101978.94
2019-05-29T10:07:40.073Z,101972.05
2019-05-29T10:10:13.794Z,101983.41
2019-05-29T10:12:42.570Z,101975.94
2019-05-29T10:15:13.856Z,101977.66
2019-05-29T10:17:42.614Z,101972.11
2019-05-29T10:20:14.159Z,101971.61
2019-05-29T10:22:42.920Z,101978.41
2019-05-29T10:25:12.895Z,101963.80
2019-05-29T10:27:41.653Z,101963.80
2019-05-29T10:30:12.000Z,101969.26
2019-05-29T10:32:42.456Z,101969.26
2019-05-29T10:35:11.199Z,101973.25
2019-05-29T10:37:40.011Z,101973.97
2019-05-29T10:40:10.058Z,101972.78
2019-05-29T10:42:39.478Z,101972.30
2019-05-29T10:45:10.103Z,101954.51
2019-05-29T10:47:38.883Z,101961.20
2019-05-29T10:50:11.008Z,101964.38
2019-05-29T10:52:39.897Z,101964.63
2019-05-29T10:55:10.081Z,101959.20
2019-05-29T10:57:38.817Z,101957.39
2019-05-29T11:00:10.123Z,101952.34
2019-05-29T11:02:38.869Z,101951.69
2019-05-29T11:05:07.825Z,101954.65
2019-05-29T11:07:36.548Z,101948.87
2019-05-29T11:10:07.716Z,101951.91
2019-05-29T11:12:40.974Z,101951.55
2019-05-29T11:15:20.936Z,101948.44
2019-05-29T11:17:40.378Z,101950.86
2019-05-29T11:20:11.280Z,101949.20
2019-05-29T11:22:40.015Z,101947.26
2019-05-29T11:25:22.645Z,101945.63
2019-05-29T11:27:41.178Z,101946.66
2019-05-29T11:30:11.378Z,101950.90
2019-05-29T11:32:41.832Z,101949.05
2019-05-29T11:35:12.205Z,101947.38
2019-05-29T11:37:54.521Z,101945.95
2019-05-29T11:40:24.821Z,101936.84
2019-05-29T11:42:59.037Z,101938.38
2019-05-29T11:45:35.177Z,101942.34
2019-05-29T11:48:05.480Z,101940.37
2019-05-29T11:50:36.781Z,101938.77
2019-05-29T11:53:09.822Z,101935.55
2019-05-29T11:55:39.472Z,101938.75
2019-05-29T11:58:30.096Z,101927.53
2019-05-29T12:00:46.035Z,101935.73
2019-05-29T12:03:29.803Z,101928.62
2019-05-29T12:05:59.781Z,101935.39
2019-05-29T12:08:28.516Z,101932.70
2019-05-29T12:10:57.440Z,101928.98
2019-05-29T12:13:26.255Z,101932.66
2019-05-29T12:15:55.929Z,101938.53
2019-05-29T12:18:25.117Z,101935.78
2019-05-29T12:20:54.079Z,101921.47
2019-05-29T12:23:26.817Z,101919.08
2019-05-29T12:26:12.478Z,101926.77
2019-05-29T12:28:24.664Z,101919.23
2019-05-29T12:30:55.021Z,101923.27
2019-05-29T12:33:24.046Z,101915.45
2019-05-29T12:35:52.953Z,101920.47
2019-05-29T12:38:21.795Z,101917.06
2019-05-29T12:40:50.571Z,101913.16
2019-05-29T12:43:27.317Z,101913.23
2019-05-29T12:45:49.799Z,101922.54
2019-05-29T12:48:18.590Z,101916.31
2019-05-29T12:50:47.356Z,101916.78
2019-05-29T12:53:29.668Z,101912.02
2019-05-29T12:55:48.200Z,101901.92
2019-05-29T12:58:16.977Z,101904.72
2019-05-29T13:00:45.743Z,101903.38
2019-05-29T13:03:14.586Z,101898.83
2019-05-29T13:05:47.061Z,101901.20
2019-05-29T13:08:21.991Z,101891.34
2019-05-29T13:10:50.741Z,101896.09
2019-05-29T13:13:19.506Z,101891.61
2019-05-29T13:15:48.372Z,101895.26
2019-05-29T13:18:17.102Z,101895.34
2019-05-29T13:20:45.980Z,101890.92
2019-05-29T13:23:14.738Z,101893.30
2019-05-29T13:25:43.509Z,101902.48
2019-05-29T13:28:13.137Z,101889.75
2019-05-29T13:30:41.876Z,101890.53
2019-05-29T13:33:10.847Z,101878.83
2019-05-29T13:35:39.587Z,101885.97
2019-05-29T13:38:08.327Z,101882.39
2019-05-29T13:40:37.250Z,101882.88
2019-05-29T13:43:14.717Z,101879.16
2019-05-29T13:45:36.497Z,101882.34
2019-05-29T13:48:05.580Z,101883.55
2019-05-29T13:50:34.381Z,101877.73
2019-05-29T13:53:03.634Z,101877.95
2019-05-29T13:55:33.378Z,101875.98
2019-05-29T13:58:02.132Z,101869.90
2019-05-29T14:00:34.216Z,101873.13
2019-05-29T14:03:02.683Z,101873.00
2019-05-29T14:05:31.849Z,101873.31
2019-05-29T14:08:00.683Z,101872.47
2019-05-29T14:10:30.223Z,101876.66
2019-05-29T14:12:59.125Z,101876.66
2019-05-29T14:15:27.934Z,101874.05
2019-05-29T14:17:56.716Z,101864.30
2019-05-29T14:20:25.709Z,101861.05
2019-05-29T14:22:54.454Z,101869.96
2019-05-29T14:25:23.173Z,101871.03
2019-05-29T14:27:51.928Z,101866.28
2019-05-29T14:30:21.054Z,101865.46
2019-05-29T14:32:52.696Z,101866.91
2019-05-29T14:35:21.475Z,101854.77
2019-05-29T14:37:50.236Z,101859.09
2019-05-29T14:40:19.250Z,101851.44
2019-05-29T14:42:47.994Z,101858.00
2019-05-29T14:45:18.356Z,101849.71
2019-05-29T14:47:47.089Z,101851.96
2019-05-29T14:50:15.941Z,101855.11
2019-05-29T14:52:44.677Z,101851.83
2019-05-29T14:55:17.577Z,101847.78
2019-05-29T14:57:44.857Z,101840.30
2019-05-29T15:00:24.866Z,101842.31
2019-05-29T15:02:45.995Z,101849.77
2019-05-29T15:05:15.346Z,101842.11
2019-05-29T15:07:44.088Z,101837.93
2019-05-29T15:10:24.802Z,101844.06
2019-05-29T15:12:46.005Z,101779.39
2019-05-29T15:15:16.855Z,101842.07
2019-05-29T15:17:46.008Z,101841.98
2019-05-29T15:20:16.779Z,101844.83
2019-05-29T15:22:45.381Z,101832.81
2019-05-29T15:25:23.659Z,101838.56
2019-05-29T15:27:46.172Z,101827.02
2019-05-29T15:30:22.002Z,101829.45
2019-05-29T15:32:46.019Z,101835.93
2019-05-29T15:35:18.054Z,101833.58
2019-05-29T15:37:45.291Z,101831.61
2019-05-29T15:40:17.196Z,101827.20
2019-05-29T15:42:46.037Z,101821.86
2019-05-29T15:45:15.997Z,101818.94
2019-05-29T15:47:45.222Z,101818.81
2019-05-29T15:50:16.155Z,101820.24
2019-05-29T15:52:45.980Z,101817.77
2019-05-29T15:55:28.600Z,101813.78
2019-05-29T15:57:47.008Z,101813.78
2019-05-29T16:00:15.858Z,101823.42
2019-05-29T16:02:48.211Z,101821.84
2019-05-29T16:05:17.205Z,101822.48
2019-05-29T16:07:46.806Z,101814.40
2019-05-29T16:10:18.589Z,101812.08
2019-05-29T16:12:46.763Z,101809.37
2019-05-29T16:15:17.203Z,101809.69
2019-05-29T16:17:46.256Z,101806.71
2019-05-29T16:20:29.598Z,101802.95
2019-05-29T16:22:59.502Z,101800.47
2019-05-29T16:25:39.679Z,101800.87
2019-05-29T16:27:58.895Z,101794.94
2019-05-29T16:30:27.650Z,101798.89
2019-05-29T16:32:56.392Z,101794.77
2019-05-29T16:35:25.191Z,101794.19
2019-05-29T16:37:54.080Z,101790.61
2019-05-29T16:40:24.328Z,101796.86
2019-05-29T16:42:53.049Z,101786.19
2019-05-29T16:45:22.366Z,101782.30
2019-05-29T16:47:52.170Z,101783.11
2019-05-29T16:50:21.357Z,101780.96
2019-05-29T16:52:50.068Z,101786.89
2019-05-29T16:55:20.932Z,101788.12
2019-05-29T16:57:50.372Z,101785.33
2019-05-29T17:00:19.813Z,101794.62
2019-05-29T17:02:48.605Z,101800.60
2019-05-29T17:05:17.765Z,101800.98
2019-05-29T17:07:46.531Z,101799.97
2019-05-29T17:10:16.880Z,101805.02
2019-05-29T17:12:47.225Z,101799.67
2019-05-29T17:15:17.126Z,101806.17
2019-05-29T17:17:47.185Z,101804.22
2019-05-29T17:20:18.651Z,101800.95
2019-05-29T17:22:47.997Z,101793.39
2019-05-29T17:25:16.877Z,101796.89
2019-05-29T17:27:45.696Z,101797.02
2019-05-29T17:30:17.371Z,101794.50
2019-05-29T17:32:46.245Z,101794.27
2019-05-29T17:35:14.969Z,101806.63
2019-05-29T17:37:43.706Z,101786.97
2019-05-29T17:40:12.658Z,101790.92
2019-05-29T17:42:41.466Z,101788.71
2019-05-29T17:45:12.127Z,101790.05
2019-05-29T17:47:41.554Z,101785.67
2019-05-29T17:50:10.535Z,101790.68
2019-05-29T17:52:39.500Z,101792.28
2019-05-29T17:55:09.660Z,101791.78
2019-05-29T17:57:38.403Z,101791.19
2019-05-29T18:00:15.884Z,101791.50
2019-05-29T18:02:51.972Z,101786.33
2019-05-29T18:05:18.417Z,101787.19
2019-05-29T18:07:47.743Z,101785.05
2019-05-29T18:10:19.390Z,101787.02
2019-05-29T18:12:48.891Z,101786.52
2019-05-29T18:15:19.525Z,101787.08
2019-05-29T18:17:48.789Z,101779.41
2019-05-29T18:20:17.997Z,101782.42
2019-05-29T18:22:46.856Z,101784.92
2019-05-29T18:25:16.129Z,101783.30
2019-05-29T18:27:44.888Z,101792.06
2019-05-29T18:30:14.278Z,101789.05
2019-05-29T18:32:43.029Z,101787.72
2019-05-29T18:35:13.351Z,101789.13
2019-05-29T18:37:42.084Z,101782.02
2019-05-29T18:40:12.641Z,101782.27
2019-05-29T18:42:41.835Z,101785.86
2019-05-29T18:45:20.965Z,101778.19
2019-05-29T18:47:43.385Z,101780.92
2019-05-29T18:50:12.168Z,101784.78
2019-05-29T18:52:40.935Z,101773.58
2019-05-29T18:55:10.186Z,101778.20
2019-05-29T18:57:39.067Z,101779.84
2019-05-29T19:00:11.440Z,101776.58
2019-05-29T19:02:40.174Z,101777.92
2019-05-29T19:05:10.551Z,101777.33
2019-05-29T19:07:41.610Z,101772.37
2019-05-29T19:10:10.686Z,101778.09
2019-05-29T19:12:39.430Z,101775.61
2019-05-29T19:15:10.568Z,101779.41
2019-05-29T19:17:39.484Z,101779.66
2019-05-29T19:20:09.626Z,101790.75
2019-05-29T19:22:38.555Z,101796.73
2019-05-29T19:25:07.503Z,101790.14
2019-05-29T19:27:41.398Z,101793.03
2019-05-29T19:30:09.649Z,101797.91
2019-05-29T19:32:38.597Z,101789.96
2019-05-29T19:35:09.662Z,101793.01
2019-05-29T19:37:38.424Z,101793.34
2019-05-29T19:40:09.705Z,101799.91
2019-05-29T19:42:38.480Z,101796.25
2019-05-29T19:45:11.901Z,101803.02
2019-05-29T19:47:40.700Z,101801.48
2019-05-29T19:50:11.709Z,101801.66
2019-05-29T19:52:41.358Z,101804.47
2019-05-29T19:55:10.426Z,101807.38
2019-05-29T19:57:54.821Z,101802.38
2019-05-29T20:00:11.852Z,101805.31
2019-05-29T20:02:41.236Z,101803.59
2019-05-29T20:05:10.035Z,101807.11
2019-05-29T20:07:38.798Z,101814.27
2019-05-29T20:10:10.034Z,101814.10
2019-05-29T20:12:38.862Z,101813.48
2019-05-29T20:15:10.954Z,101808.52
2019-05-29T20:17:39.775Z,101807.81
2019-05-29T20:20:08.813Z,101821.73
2019-05-29T20:22:38.924Z,101810.71
2019-05-29T20:25:13.466Z,101808.52
2019-05-29T20:27:40.671Z,101817.48
2019-05-29T20:30:18.511Z,101811.45
2019-05-29T20:32:48.686Z,101820.05
2019-05-29T20:35:18.114Z,101813.25
2019-05-29T20:37:47.015Z,101819.98
2019-05-29T20:40:17.324Z,101814.31
2019-05-29T20:42:46.708Z,101815.34
2019-05-29T20:45:18.591Z,101804.08
2019-05-29T20:47:47.330Z,101810.47
2019-05-29T20:50:16.217Z,101805.59
2019-05-29T20:52:47.824Z,101808.25
2019-05-29T20:55:16.778Z,101807.08
2019-05-29T20:57:45.553Z,101809.48
2019-05-29T21:00:17.755Z,101813.14
2019-05-29T21:02:46.680Z,101810.84
2019-05-29T21:05:17.541Z,101805.86
2019-05-29T21:07:46.295Z,101803.64
2019-05-29T21:10:16.465Z,101801.33
2019-05-29T21:12:47.622Z,101804.76
2019-05-29T21:15:16.047Z,101805.29
2019-05-29T21:17:44.905Z,101803.32
2019-05-29T21:20:13.797Z,101802.53
2019-05-29T21:22:45.052Z,101811.20
2019-05-29T21:25:18.861Z,101801.44
2019-05-29T21:27:49.147Z,101796.45
2019-05-29T21:30:17.888Z,101800.27
2019-05-29T21:32:46.682Z,101798.61
2019-05-29T21:35:15.637Z,101799.70
2019-05-29T21:37:44.475Z,101799.39
2019-05-29T21:40:13.560Z,101797.20
2019-05-29T21:42:43.246Z,101795.02
2019-05-29T21:45:12.181Z,101794.30
2019-05-29T21:47:41.061Z,101799.72
2019-05-29T21:50:10.457Z,101796.03
2019-05-29T21:52:39.580Z,101796.59
2019-05-29T21:55:09.581Z,101799.63
2019-05-29T21:57:42.336Z,101797.11
2019-05-29T22:00:13.387Z,101798.28
2019-05-29T22:02:42.415Z,101797.91
2019-05-29T22:05:11.767Z,101793.65
2019-05-29T22:07:40.785Z,101795.16
2019-05-29T22:10:09.663Z,101792.81
2019-05-29T22:12:38.372Z,101783.22
2019-05-29T22:15:08.741Z,101784.20
2019-05-29T22:17:37.643Z,101784.83
2019-05-29T22:20:09.053Z,101785.16
2019-05-29T22:22:37.801Z,101785.23
2019-05-29T22:25:07.694Z,101781.55
2019-05-29T22:27:38.279Z,101780.52
2019-05-29T22:30:08.810Z,101777.94
2019-05-29T22:32:37.555Z,101775.25
2019-05-29T22:35:09.798Z,101770.41
2019-05-29T22:37:38.527Z,101765.33
2019-05-29T22:40:07.763Z,101759.69
2019-05-29T22:42:36.525Z,101760.04
2019-05-29T22:45:06.846Z,101754.31
2019-05-29T22:47:35.612Z,101755.43
2019-05-29T22:50:07.795Z,101747.86
2019-05-29T22:52:36.567Z,101763.64
2019-05-29T22:55:06.887Z,101751.23
2019-05-29T22:57:38.385Z,101745.08
2019-05-29T23:00:08.970Z,101745.15
2019-05-29T23:02:37.705Z,101743.58
2019-05-29T23:05:09.068Z,101742.14
2019-05-29T23:07:37.887Z,101742.41
2019-05-29T23:10:10.044Z,101735.91
2019-05-29T23:12:38.931Z,101752.18
2019-05-29T23:15:08.971Z,101733.57
2019-05-29T23:17:37.876Z,101730.76
2019-05-29T23:20:09.198Z,101732.70
2019-05-29T23:22:37.933Z,101740.30
2019-05-29T23:25:07.239Z,101731.61
2019-05-29T23:27:36.380Z,101738.70
2019-05-29T23:30:08.145Z,101732.80
2019-05-29T23:32:36.931Z,101574.19
2019-05-29T23:35:08.915Z,101716.99
2019-05-29T23:37:37.650Z,101722.44
2019-05-29T23:40:09.327Z,101725.16
2019-05-29T23:42:38.055Z,101721.34
2019-05-29T23:45:08.476Z,101721.09
2019-05-29T23:47:37.356Z,101725.44
2019-05-29T23:50:08.298Z,101721.98
2019-05-29T23:52:37.052Z,101721.98
2019-05-29T23:55:07.210Z,101717.91
2019-05-29T23:57:36.015Z,101721.41
